createdAt,value
2023-06-04T00:02:06.328Z,102104.44
2023-06-04T00:04:33.056Z,102102.50
2023-06-04T00:06:59.755Z,102101.00
2023-06-04T00:09:26.376Z,102104.88
2023-06-04T00:11:53.191Z,102102.19
2023-06-04T00:14:19.969Z,102101.75
2023-06-04T00:16:48.137Z,102098.59
2023-06-04T00:19:14.864Z,102096.13
2023-06-04T00:21:41.601Z,102098.97
2023-06-04T00:24:08.294Z,102093.63
2023-06-04T00:26:35.250Z,102093.13
2023-06-04T00:29:02.820Z,102092.50
2023-06-04T00:31:29.532Z,102096.72
2023-06-04T00:33:57.569Z,102099.81
2023-06-04T00:36:24.305Z,102101.00
2023-06-04T00:38:51.040Z,102102.22
2023-06-04T00:41:17.946Z,102104.59
2023-06-04T00:43:58.175Z,102106.16
2023-06-04T00:46:26.480Z,102108.56
2023-06-04T00:48:53.700Z,102098.38
2023-06-04T00:51:22.552Z,102107.78
2023-06-04T00:53:49.963Z,102108.81
2023-06-04T00:56:16.814Z,102100.09
2023-06-04T00:58:46.458Z,102106.50
2023-06-04T01:01:19.760Z,102098.66
2023-06-04T01:03:50.830Z,102101.69
2023-06-04T01:06:23.781Z,102105.38
2023-06-04T01:08:51.188Z,102098.72
2023-06-04T01:11:17.842Z,102097.59
2023-06-04T01:13:44.651Z,102096.28
2023-06-04T01:16:15.587Z,102095.66
2023-06-04T01:18:42.924Z,102101.69
2023-06-04T01:21:13.817Z,102106.44
2023-06-04T01:23:47.993Z,102101.41
2023-06-04T01:26:14.955Z,102104.09
2023-06-04T01:28:43.265Z,102111.28
2023-06-04T01:31:10.922Z,102106.50
2023-06-04T01:33:38.337Z,102095.28
2023-06-04T01:36:05.271Z,102092.81
2023-06-04T01:38:31.908Z,102093.44
2023-06-04T01:41:02.624Z,102092.44
2023-06-04T01:43:29.808Z,102089.59
2023-06-04T01:45:57.768Z,102092.44
2023-06-04T01:48:24.495Z,102092.44
2023-06-04T01:50:51.333Z,102090.31
2023-06-04T01:53:18.172Z,102092.50
2023-06-04T01:55:45.907Z,102083.66
2023-06-04T01:58:13.930Z,102090.03
2023-06-04T02:00:40.910Z,102087.53
2023-06-04T02:03:09.746Z,102087.84
2023-06-04T02:05:36.603Z,102084.72
2023-06-04T02:08:05.895Z,102093.56
2023-06-04T02:10:32.986Z,102088.38
2023-06-04T02:13:01.694Z,102085.22
2023-06-04T02:15:31.919Z,102086.44
2023-06-04T02:18:00.397Z,102094.97
2023-06-04T02:20:27.648Z,102089.16
2023-06-04T02:22:55.660Z,102094.84
2023-06-04T02:25:23.050Z,102095.00
2023-06-04T02:27:49.773Z,102095.38
2023-06-04T02:30:18.027Z,102096.56
2023-06-04T02:32:51.518Z,102098.22
2023-06-04T02:35:19.538Z,102096.72
2023-06-04T02:37:46.339Z,102090.75
2023-06-04T02:40:13.113Z,102087.41
2023-06-04T02:42:39.745Z,102096.81
2023-06-04T02:45:07.482Z,102087.13
2023-06-04T02:47:34.176Z,102083.94
2023-06-04T02:50:04.690Z,102089.47
2023-06-04T02:52:31.679Z,102089.47
2023-06-04T02:54:58.390Z,102084.31
2023-06-04T02:57:25.077Z,102086.31
2023-06-04T02:59:53.052Z,102080.31
2023-06-04T03:02:19.683Z,102083.97
2023-06-04T03:04:49.105Z,102096.88
2023-06-04T03:07:21.692Z,102092.88
2023-06-04T03:09:48.423Z,102083.22
2023-06-04T03:12:15.232Z,102076.66
2023-06-04T03:14:41.911Z,102090.19
2023-06-04T03:17:11.521Z,102086.22
2023-06-04T03:19:39.172Z,102090.06
2023-06-04T03:22:09.744Z,102089.44
2023-06-04T03:24:39.916Z,102091.44
2023-06-04T03:27:08.283Z,102089.59
2023-06-04T03:29:35.631Z,102089.78
2023-06-04T03:32:02.667Z,102088.47
2023-06-04T03:34:35.145Z,102086.78
2023-06-04T03:37:02.414Z,102087.63
2023-06-04T03:39:29.146Z,102092.97
2023-06-04T03:41:57.276Z,102089.63
2023-06-04T03:44:24.288Z,102089.63
2023-06-04T03:46:51.027Z,102091.47
2023-06-04T03:49:18.510Z,102091.84
2023-06-04T03:51:45.197Z,102093.84
2023-06-04T03:54:13.303Z,102094.66
2023-06-04T03:56:40.517Z,102095.31
2023-06-04T03:59:08.730Z,102097.19
2023-06-04T04:01:35.638Z,102101.69
2023-06-04T04:04:02.443Z,102103.53
2023-06-04T04:06:29.212Z,102108.34
2023-06-04T04:08:56.382Z,102100.34
2023-06-04T04:11:23.088Z,102105.69
2023-06-04T04:13:49.782Z,102111.88
2023-06-04T04:16:17.878Z,102104.00
2023-06-04T04:18:45.362Z,102116.38
2023-06-04T04:21:12.411Z,102111.03
2023-06-04T04:23:41.567Z,102114.06
2023-06-04T04:26:11.316Z,102104.38
2023-06-04T04:28:38.307Z,102113.03
2023-06-04T04:31:05.566Z,102108.72
2023-06-04T04:33:37.889Z,102107.88
2023-06-04T04:36:04.688Z,102116.06
2023-06-04T04:38:34.708Z,102115.41
2023-06-04T04:41:01.939Z,102111.72
2023-06-04T04:43:33.374Z,102114.06
2023-06-04T04:46:00.564Z,102112.03
2023-06-04T04:48:27.437Z,102112.69
2023-06-04T04:50:55.701Z,102109.03
2023-06-04T04:53:22.707Z,102109.69
2023-06-04T04:55:49.776Z,102107.88
2023-06-04T04:58:16.880Z,102110.16
2023-06-04T05:00:43.625Z,102102.66
2023-06-04T05:03:10.384Z,102103.50
2023-06-04T05:05:37.160Z,102109.31
2023-06-04T05:08:05.779Z,102111.31
2023-06-04T05:10:32.876Z,102109.47
2023-06-04T05:13:01.849Z,102107.31
2023-06-04T05:15:28.711Z,102109.59
2023-06-04T05:17:57.541Z,102102.25
2023-06-04T05:20:24.340Z,102105.78
2023-06-04T05:22:51.209Z,102099.06
2023-06-04T05:25:19.516Z,102109.56
2023-06-04T05:27:46.447Z,102110.41
2023-06-04T05:30:14.605Z,102104.06
2023-06-04T05:32:42.079Z,102111.75
2023-06-04T05:35:09.841Z,102105.19
2023-06-04T05:37:39.383Z,102095.00
2023-06-04T05:40:08.252Z,102094.63
2023-06-04T05:42:36.454Z,102099.66
2023-06-04T05:45:03.277Z,102099.94
2023-06-04T05:47:31.048Z,102103.28
2023-06-04T05:49:58.232Z,102100.44
2023-06-04T05:52:24.960Z,102097.41
2023-06-04T05:54:52.338Z,102103.25
2023-06-04T05:57:18.973Z,102102.03
2023-06-04T05:59:47.106Z,102107.03
2023-06-04T06:02:14.314Z,102100.53
2023-06-04T06:04:41.497Z,102113.50
2023-06-04T06:07:08.786Z,102112.97
2023-06-04T06:09:36.667Z,102114.66
2023-06-04T06:12:03.872Z,102115.13
2023-06-04T06:14:31.014Z,102122.63
2023-06-04T06:16:59.457Z,102115.13
2023-06-04T06:19:26.063Z,102112.91
2023-06-04T06:21:52.864Z,102119.56
2023-06-04T06:24:19.481Z,102119.03
2023-06-04T06:26:46.477Z,102120.53
2023-06-04T06:29:13.213Z,102124.50
2023-06-04T06:31:39.927Z,102121.47
2023-06-04T06:34:08.127Z,102116.59
2023-06-04T06:36:35.044Z,102118.91
2023-06-04T06:39:01.962Z,102118.34
2023-06-04T06:41:28.947Z,102125.22
2023-06-04T06:43:55.660Z,102124.84
2023-06-04T06:46:22.354Z,102125.13
2023-06-04T06:48:49.649Z,102121.25
2023-06-04T06:51:18.080Z,102133.28
2023-06-04T06:53:44.785Z,102134.56
2023-06-04T06:56:11.510Z,102134.00
2023-06-04T06:58:38.135Z,102134.31
2023-06-04T07:01:04.944Z,102136.44
2023-06-04T07:03:32.442Z,102135.88
2023-06-04T07:05:59.317Z,102139.03
2023-06-04T07:08:27.438Z,102136.66
2023-06-04T07:10:54.132Z,102136.13
2023-06-04T07:13:20.915Z,102151.44
2023-06-04T07:15:47.753Z,102140.16
2023-06-04T07:18:14.623Z,102151.16
2023-06-04T07:20:41.517Z,102144.44
2023-06-04T07:23:08.230Z,102144.72
2023-06-04T07:25:36.484Z,102149.53
2023-06-04T07:28:05.268Z,102156.19
2023-06-04T07:30:35.200Z,102144.91
2023-06-04T07:33:01.876Z,102150.56
2023-06-04T07:35:28.604Z,102148.81
2023-06-04T07:37:55.532Z,102145.38
2023-06-04T07:40:22.414Z,102148.50
2023-06-04T07:42:50.558Z,102150.25
2023-06-04T07:45:17.327Z,102156.91
2023-06-04T07:47:44.250Z,102157.38
2023-06-04T07:50:11.478Z,102157.44
2023-06-04T07:52:38.152Z,102155.00
2023-06-04T07:55:06.167Z,102161.69
2023-06-04T07:57:33.490Z,102152.22
2023-06-04T08:00:02.901Z,102157.88
2023-06-04T08:02:29.584Z,102150.06
2023-06-04T08:04:56.384Z,102154.69
2023-06-04T08:07:23.205Z,102150.41
2023-06-04T08:09:50.873Z,102157.50
2023-06-04T08:12:17.610Z,102154.44
2023-06-04T08:14:44.524Z,102153.84
2023-06-04T08:17:12.514Z,102156.44
2023-06-04T08:19:39.130Z,102162.91
2023-06-04T08:22:06.193Z,102156.94
2023-06-04T08:24:32.862Z,102157.84
2023-06-04T08:26:59.680Z,102161.22
2023-06-04T08:29:26.616Z,102155.91
2023-06-04T08:31:53.278Z,102155.94
2023-06-04T08:34:21.336Z,102153.97
2023-06-04T08:36:48.008Z,102148.63
2023-06-04T08:39:14.722Z,102155.06
2023-06-04T08:41:44.819Z,102152.03
2023-06-04T08:44:12.305Z,102161.44
2023-06-04T08:46:41.043Z,102153.81
2023-06-04T08:49:08.716Z,102158.06
2023-06-04T08:51:41.282Z,102152.50
2023-06-04T08:54:09.478Z,102164.13
2023-06-04T08:56:36.902Z,102157.75
2023-06-04T08:59:06.307Z,102161.72
2023-06-04T09:01:34.816Z,102163.59
2023-06-04T09:04:05.113Z,102168.19
2023-06-04T09:06:33.702Z,102166.13
2023-06-04T09:09:08.538Z,102166.19
2023-06-04T09:11:40.353Z,102161.03
2023-06-04T09:14:09.705Z,102155.66
2023-06-04T09:16:43.937Z,102159.63
2023-06-04T09:19:10.601Z,102160.06
2023-06-04T09:21:47.390Z,102164.63
2023-06-04T09:24:15.601Z,102166.50
2023-06-04T09:26:42.235Z,102159.69
2023-06-04T09:29:08.893Z,102161.34
2023-06-04T09:31:38.250Z,102165.06
2023-06-04T09:34:05.263Z,102157.19
2023-06-04T09:36:32.514Z,102154.28
2023-06-04T09:38:59.240Z,102156.34
2023-06-04T09:41:27.534Z,102160.06
2023-06-04T09:44:03.913Z,102153.88
2023-06-04T09:46:31.601Z,102155.09
2023-06-04T09:49:02.326Z,102160.47
2023-06-04T09:51:30.113Z,102159.22
2023-06-04T09:53:58.862Z,102155.28
2023-06-04T09:56:28.515Z,102156.53
2023-06-04T09:58:57.400Z,102159.19
2023-06-04T10:01:25.132Z,102152.75
2023-06-04T10:03:53.779Z,102155.81
2023-06-04T10:06:22.198Z,102164.72
2023-06-04T10:08:50.915Z,102164.72
2023-06-04T10:11:24.876Z,102162.00
2023-06-04T10:13:58.134Z,102155.53
2023-06-04T10:16:34.252Z,102150.31
2023-06-04T10:19:02.269Z,102161.50
2023-06-04T10:21:32.797Z,102154.44
2023-06-04T10:24:00.198Z,102162.25
2023-06-04T10:26:27.297Z,102161.63
2023-06-04T10:28:57.721Z,102160.16
2023-06-04T10:31:24.726Z,102161.78
2023-06-04T10:33:55.167Z,102153.22
2023-06-04T10:36:23.262Z,102150.47
2023-06-04T10:38:54.385Z,102159.56
2023-06-04T10:41:23.847Z,102148.91
2023-06-04T10:43:52.673Z,102150.16
2023-06-04T10:46:21.389Z,102150.31
2023-06-04T10:48:49.758Z,102156.94
2023-06-04T10:51:17.185Z,102156.50
2023-06-04T10:53:44.008Z,102156.06
2023-06-04T10:56:11.088Z,102150.00
2023-06-04T10:58:37.870Z,102152.84
2023-06-04T11:01:04.714Z,102136.81
2023-06-04T11:03:49.256Z,102144.25
2023-06-04T11:06:17.848Z,102142.53
2023-06-04T11:08:44.713Z,102142.50
2023-06-04T11:11:13.756Z,102143.47
2023-06-04T11:13:40.541Z,102141.16
2023-06-04T11:16:17.295Z,102135.53
2023-06-04T11:18:55.687Z,102122.38
2023-06-04T11:21:22.420Z,102135.81
2023-06-04T11:23:49.231Z,102137.19
2023-06-04T11:26:16.194Z,102136.28
2023-06-04T11:28:43.957Z,102130.44
2023-06-04T11:31:10.925Z,102132.47
2023-06-04T11:33:45.506Z,102120.72
2023-06-04T11:36:23.516Z,102120.28
2023-06-04T11:38:55.590Z,102122.31
2023-06-04T11:41:22.370Z,102123.03
2023-06-04T11:43:49.332Z,102116.13
2023-06-04T11:46:16.452Z,102115.44
2023-06-04T11:48:45.484Z,102106.28
2023-06-04T11:51:13.140Z,102107.66
2023-06-04T11:53:40.417Z,102103.50
2023-06-04T11:56:07.520Z,102109.28
2023-06-04T11:58:34.672Z,102108.81
2023-06-04T12:01:01.582Z,102106.84
2023-06-04T12:03:38.613Z,102106.16
2023-06-04T12:06:13.922Z,102106.16
2023-06-04T12:08:50.877Z,102105.94
2023-06-04T12:11:29.483Z,102099.00
2023-06-04T12:13:56.997Z,102099.34
2023-06-04T12:16:23.766Z,102099.47
2023-06-04T12:18:52.051Z,102097.97
2023-06-04T12:21:23.865Z,102085.00
2023-06-04T12:23:51.275Z,102089.13
2023-06-04T12:26:29.694Z,102098.47
2023-06-04T12:29:00.733Z,102090.47
2023-06-04T12:31:33.104Z,102093.53
2023-06-04T12:34:01.097Z,102096.59
2023-06-04T12:36:31.214Z,102091.78
2023-06-04T12:39:00.659Z,102094.84
2023-06-04T12:41:27.585Z,102089.78
2023-06-04T12:43:54.726Z,102092.25
2023-06-04T12:46:21.641Z,102090.13
2023-06-04T12:48:48.404Z,102089.44
2023-06-04T12:51:15.113Z,102084.63
2023-06-04T12:53:43.626Z,102082.50
2023-06-04T12:56:11.132Z,102076.59
2023-06-04T12:58:38.060Z,102078.25
2023-06-04T13:01:05.050Z,102081.81
2023-06-04T13:03:32.477Z,102078.63
2023-06-04T13:05:59.389Z,102084.41
2023-06-04T13:08:27.280Z,102088.31
2023-06-04T13:10:55.405Z,102082.16
2023-06-04T13:13:22.225Z,102076.28
2023-06-04T13:15:48.909Z,102079.09
2023-06-04T13:18:17.150Z,102069.41
2023-06-04T13:20:44.340Z,102077.31
2023-06-04T13:23:13.134Z,102078.97
2023-06-04T13:25:39.897Z,102071.44
2023-06-04T13:28:09.115Z,102073.19
2023-06-04T13:30:37.885Z,102075.16
2023-06-04T13:33:05.254Z,102073.88
2023-06-04T13:35:32.490Z,102066.56
2023-06-04T13:37:59.256Z,102073.16
2023-06-04T13:40:26.206Z,102070.81
2023-06-04T13:42:52.986Z,102063.00
2023-06-04T13:45:21.514Z,102066.31
2023-06-04T13:47:49.274Z,102059.59
2023-06-04T13:50:16.473Z,102070.78
2023-06-04T13:52:43.306Z,102058.66
2023-06-04T13:55:10.495Z,102052.97
2023-06-04T13:57:37.513Z,102057.91
2023-06-04T14:00:05.805Z,102061.00
2023-06-04T14:02:34.078Z,102052.94
2023-06-04T14:05:01.184Z,102051.38
2023-06-04T14:07:27.870Z,102048.66
2023-06-04T14:09:55.985Z,102042.41
2023-06-04T14:12:23.136Z,102050.91
2023-06-04T14:14:49.930Z,102037.91
2023-06-04T14:17:17.039Z,102040.13
2023-06-04T14:19:45.436Z,102044.72
2023-06-04T14:22:13.043Z,102039.06
2023-06-04T14:24:41.881Z,102033.16
2023-06-04T14:27:08.888Z,102037.03
2023-06-04T14:29:36.451Z,102038.69
2023-06-04T14:32:03.368Z,102040.09
2023-06-04T14:34:30.594Z,102034.16
2023-06-04T14:37:00.744Z,102037.47
2023-06-04T14:39:27.887Z,102031.53
2023-06-04T14:41:54.855Z,102030.22
2023-06-04T14:44:22.188Z,102023.72
2023-06-04T14:46:51.097Z,102020.50
2023-06-04T14:49:18.033Z,102029.75
2023-06-04T14:51:44.692Z,102017.78
2023-06-04T14:54:12.720Z,102020.78
2023-06-04T14:56:39.453Z,102015.06
2023-06-04T14:59:12.350Z,102019.44
2023-06-04T15:01:39.823Z,102018.13
2023-06-04T15:04:06.508Z,102020.63
2023-06-04T15:06:33.393Z,102010.31
2023-06-04T15:09:00.629Z,102013.38
2023-06-04T15:11:28.905Z,102015.84
2023-06-04T15:13:55.665Z,102009.06
2023-06-04T15:16:22.712Z,102004.47
2023-06-04T15:18:52.476Z,101992.31
2023-06-04T15:21:19.265Z,101999.19
2023-06-04T15:23:49.509Z,102004.09
2023-06-04T15:26:17.483Z,101999.25
2023-06-04T15:28:45.842Z,102000.31
2023-06-04T15:31:12.637Z,101995.94
2023-06-04T15:33:39.541Z,101989.19
2023-06-04T15:36:06.878Z,101994.41
2023-06-04T15:38:34.511Z,101987.06
2023-06-04T15:41:01.974Z,101988.97
2023-06-04T15:43:28.693Z,101989.19
2023-06-04T15:45:56.934Z,101991.94
2023-06-04T15:48:23.661Z,101993.81
2023-06-04T15:50:50.995Z,101995.47
2023-06-04T15:53:18.612Z,101991.94
2023-06-04T15:55:45.666Z,101989.19
2023-06-04T15:58:12.335Z,101990.59
2023-06-04T16:00:39.058Z,101981.38
2023-06-04T16:03:07.163Z,101987.63
2023-06-04T16:05:33.951Z,101985.97
2023-06-04T16:08:01.172Z,101985.97
2023-06-04T16:10:27.956Z,101985.66
2023-06-04T16:12:54.913Z,101981.78
2023-06-04T16:15:21.591Z,101980.16
2023-06-04T16:17:49.706Z,101968.91
2023-06-04T16:20:17.874Z,101968.69
2023-06-04T16:22:44.578Z,101977.69
2023-06-04T16:25:11.314Z,101967.41
2023-06-04T16:27:38.003Z,101969.28
2023-06-04T16:30:05.832Z,101966.28
2023-06-04T16:32:32.800Z,101967.94
2023-06-04T16:35:01.433Z,101966.06
2023-06-04T16:37:30.067Z,101962.75
2023-06-04T16:39:57.250Z,101962.19
2023-06-04T16:42:25.806Z,101959.09
2023-06-04T16:44:52.618Z,101953.13
2023-06-04T16:47:19.476Z,101953.34
2023-06-04T16:49:46.269Z,101951.47
2023-06-04T16:52:12.954Z,101949.81
2023-06-04T16:54:43.019Z,101948.66
2023-06-04T16:57:10.054Z,101951.63
2023-06-04T16:59:36.772Z,101953.19
2023-06-04T17:02:04.845Z,101951.53
2023-06-04T17:04:31.533Z,101959.38
2023-06-04T17:06:58.222Z,101954.41
2023-06-04T17:09:24.887Z,101950.78
2023-06-04T17:11:53.090Z,101949.06
2023-06-04T17:14:20.059Z,101944.63
2023-06-04T17:16:47.131Z,101952.34
2023-06-04T17:19:13.878Z,101943.75
2023-06-04T17:21:40.610Z,101949.94
2023-06-04T17:24:08.513Z,101956.06
2023-06-04T17:26:36.207Z,101947.59
2023-06-04T17:29:05.185Z,101958.91
2023-06-04T17:31:32.205Z,101953.88
2023-06-04T17:33:58.847Z,101952.59
2023-06-04T17:36:25.675Z,101954.88
2023-06-04T17:38:52.378Z,101956.44
2023-06-04T17:41:19.203Z,101964.44
2023-06-04T17:43:46.500Z,101952.69
2023-06-04T17:46:14.594Z,101961.53
2023-06-04T17:48:41.325Z,101959.53
2023-06-04T17:51:08.150Z,101953.53
2023-06-04T17:53:34.823Z,101962.97
2023-06-04T17:56:02.250Z,101960.97
2023-06-04T17:58:30.260Z,101960.16
2023-06-04T18:00:57.621Z,101965.22
2023-06-04T18:03:25.809Z,101967.22
2023-06-04T18:05:52.476Z,101967.91
2023-06-04T18:08:22.256Z,101972.16
2023-06-04T18:10:49.044Z,101967.13
2023-06-04T18:13:16.414Z,101962.59
2023-06-04T18:15:44.128Z,101965.44
2023-06-04T18:18:10.881Z,101964.28
2023-06-04T18:20:39.078Z,101968.50
2023-06-04T18:23:07.273Z,101974.84
2023-06-04T18:25:34.133Z,101968.72
2023-06-04T18:28:01.008Z,101971.31
2023-06-04T18:30:27.934Z,101979.34
2023-06-04T18:32:54.986Z,101970.72
2023-06-04T18:35:21.786Z,101973.03
2023-06-04T18:37:50.035Z,101981.88
2023-06-04T18:40:18.331Z,101975.25
2023-06-04T18:42:45.525Z,101984.31
2023-06-04T18:45:14.328Z,101981.31
2023-06-04T18:47:41.029Z,101996.44
2023-06-04T18:50:08.409Z,101999.13
2023-06-04T18:52:39.069Z,101997.56
2023-06-04T18:55:09.307Z,101992.38
2023-06-04T18:57:36.275Z,101998.69
2023-06-04T19:00:08.373Z,101999.00
2023-06-04T19:02:37.318Z,102006.16
2023-06-04T19:05:04.846Z,102008.63
2023-06-04T19:07:31.674Z,102006.03
2023-06-04T19:09:59.511Z,102014.06
2023-06-04T19:12:27.926Z,102008.13
2023-06-04T19:14:55.543Z,102016.09
2023-06-04T19:17:23.137Z,102017.81
2023-06-04T19:19:53.101Z,102024.09
2023-06-04T19:22:20.409Z,102019.19
2023-06-04T19:24:48.723Z,102031.72
2023-06-04T19:27:17.704Z,102033.41
2023-06-04T19:29:46.833Z,102033.94
2023-06-04T19:32:13.989Z,102031.69
2023-06-04T19:34:41.001Z,102044.03
2023-06-04T19:37:07.888Z,102042.41
2023-06-04T19:39:34.740Z,102046.78
2023-06-04T19:42:01.438Z,102054.09
2023-06-04T19:44:28.279Z,102058.28
2023-06-04T19:46:56.567Z,102052.28
2023-06-04T19:49:24.441Z,102064.41
2023-06-04T19:51:51.391Z,102062.75
2023-06-04T19:54:17.999Z,102065.88
2023-06-04T19:56:46.730Z,102064.63
2023-06-04T19:59:13.475Z,102063.00
2023-06-04T20:01:40.183Z,102066.31
2023-06-04T20:04:08.854Z,102074.63
2023-06-04T20:06:36.024Z,102078.38
2023-06-04T20:09:04.805Z,102077.97
2023-06-04T20:11:33.008Z,102077.81
2023-06-04T20:14:00.037Z,102083.38
2023-06-04T20:16:26.973Z,102086.94
2023-06-04T20:18:53.653Z,102088.38
2023-06-04T20:21:22.003Z,102102.88
2023-06-04T20:23:53.310Z,102095.81
2023-06-04T20:26:21.594Z,102097.69
2023-06-04T20:28:48.751Z,102105.19
2023-06-04T20:31:15.669Z,102108.47
2023-06-04T20:33:42.461Z,102100.38
2023-06-04T20:36:09.903Z,102106.16
2023-06-04T20:38:38.339Z,102107.00
2023-06-04T20:41:06.007Z,102113.19
2023-06-04T20:43:46.392Z,102114.81
2023-06-04T20:46:13.628Z,102116.88
2023-06-04T20:48:40.427Z,102114.59
2023-06-04T20:51:07.711Z,102122.22
2023-06-04T20:53:34.871Z,102118.94
2023-06-04T20:56:03.511Z,102110.81
2023-06-04T20:58:30.794Z,102115.34
2023-06-04T21:00:57.748Z,102120.47
2023-06-04T21:03:26.265Z,102124.19
2023-06-04T21:05:53.014Z,102129.13
2023-06-04T21:08:19.771Z,102132.22
2023-06-04T21:10:46.644Z,102136.94
2023-06-04T21:13:14.817Z,102131.34
2023-06-04T21:15:41.653Z,102140.56
2023-06-04T21:18:08.449Z,102145.91
2023-06-04T21:20:35.130Z,102145.03
2023-06-04T21:23:02.233Z,102135.28
2023-06-04T21:25:29.129Z,102144.13
2023-06-04T21:27:55.841Z,102146.13
2023-06-04T21:30:23.962Z,102150.06
2023-06-04T21:32:51.043Z,102147.94
2023-06-04T21:35:17.843Z,102142.13
2023-06-04T21:37:45.868Z,102145.44
2023-06-04T21:40:12.846Z,102149.31
2023-06-04T21:42:39.569Z,102147.22
2023-06-04T21:45:07.884Z,102152.53
2023-06-04T21:47:36.636Z,102154.78
2023-06-04T21:50:03.757Z,102150.59
2023-06-04T21:52:30.685Z,102158.19
2023-06-04T21:54:57.929Z,102161.34
2023-06-04T21:57:24.621Z,102159.72
2023-06-04T21:59:51.553Z,102165.44
2023-06-04T22:02:18.423Z,102167.88
2023-06-04T22:04:46.637Z,102162.38
2023-06-04T22:07:13.282Z,102167.44
2023-06-04T22:09:40.057Z,102165.16
2023-06-04T22:12:07.802Z,102165.47
2023-06-04T22:14:36.407Z,102167.88
2023-06-04T22:17:03.247Z,102175.75
2023-06-04T22:19:29.947Z,102163.91
2023-06-04T22:21:58.002Z,102165.75
2023-06-04T22:24:24.708Z,102174.00
2023-06-04T22:26:51.607Z,102171.88
2023-06-04T22:29:18.234Z,102168.34
2023-06-04T22:31:45.677Z,102173.94
2023-06-04T22:34:12.442Z,102175.13
2023-06-04T22:36:39.335Z,102174.03
2023-06-04T22:39:07.450Z,102175.78
2023-06-04T22:41:34.157Z,102183.19
2023-06-04T22:44:00.870Z,102177.56
2023-06-04T22:46:27.638Z,102180.59
2023-06-04T22:48:54.349Z,102180.50
2023-06-04T22:51:22.156Z,102182.84
2023-06-04T22:53:48.904Z,102189.94
2023-06-04T22:56:17.095Z,102177.16
2023-06-04T22:58:43.921Z,102188.41
2023-06-04T23:01:11.071Z,102187.13
2023-06-04T23:03:37.935Z,102187.31
2023-06-04T23:06:04.817Z,102194.03
2023-06-04T23:08:31.559Z,102206.31
2023-06-04T23:10:59.460Z,102207.63
2023-06-04T23:13:27.916Z,102212.03
2023-06-04T23:15:54.855Z,102211.09
2023-06-04T23:18:21.524Z,102206.75
2023-06-04T23:20:48.239Z,102209.94
2023-06-04T23:23:14.986Z,102207.34
2023-06-04T23:25:41.928Z,102205.19
2023-06-04T23:28:08.672Z,102214.97
2023-06-04T23:30:36.800Z,102205.81
2023-06-04T23:33:06.397Z,102209.84
2023-06-04T23:35:33.463Z,102211.03
2023-06-04T23:38:00.180Z,102204.91
2023-06-04T23:40:27.039Z,102206.75
2023-06-04T23:42:53.774Z,102205.72
2023-06-04T23:45:20.946Z,102203.06
2023-06-04T23:47:49.342Z,102200.09
2023-06-04T23:50:16.322Z,102203.28
2023-06-04T23:52:42.972Z,102196.47
2023-06-04T23:55:10.361Z,102215.34
2023-06-04T23:57:37.082Z,102208.34
